sensor_id;sensor_type;location;lat;lon;timestamp;P1;durP1;ratioP1;P2;durP2;ratioP2
46282;SDS011;32017;43.700;11.820;2023-02-28T00:00:17;13.82;;;13.32;;
46282;SDS011;32017;43.700;11.820;2023-02-28T00:02:42;15.00;;;14.45;;
46282;SDS011;32017;43.700;11.820;2023-02-28T00:05:04;15.30;;;14.73;;
46282;SDS011;32017;43.700;11.820;2023-02-28T00:07:24;13.85;;;12.95;;
46282;SDS011;32017;43.700;11.820;2023-02-28T00:09:44;14.95;;;14.13;;
46282;SDS011;32017;43.700;11.820;2023-02-28T00:12:04;15.73;;;14.98;;
46282;SDS011;32017;43.700;11.820;2023-02-28T00:14:29;15.27;;;14.55;;
46282;SDS011;32017;43.700;11.820;2023-02-28T00:16:49;14.15;;;13.70;;
46282;SDS011;32017;43.700;11.820;2023-02-28T00:19:09;14.68;;;14.07;;
46282;SDS011;32017;43.700;11.820;2023-02-28T00:21:32;14.48;;;13.85;;
46282;SDS011;32017;43.700;11.820;2023-02-28T00:23:52;18.02;;;17.23;;
46282;SDS011;32017;43.700;11.820;2023-02-28T00:26:12;17.75;;;17.05;;
46282;SDS011;32017;43.700;11.820;2023-02-28T00:28:32;17.65;;;16.70;;
46282;SDS011;32017;43.700;11.820;2023-02-28T00:30:52;16.27;;;15.07;;
46282;SDS011;32017;43.700;11.820;2023-02-28T00:33:12;16.13;;;14.93;;
46282;SDS011;32017;43.700;11.820;2023-02-28T00:35:32;15.15;;;14.35;;
46282;SDS011;32017;43.700;11.820;2023-02-28T00:37:52;13.57;;;13.05;;
46282;SDS011;32017;43.700;11.820;2023-02-28T00:40:12;13.13;;;12.75;;
46282;SDS011;32017;43.700;11.820;2023-02-28T00:42:33;13.13;;;12.55;;
46282;SDS011;32017;43.700;11.820;2023-02-28T00:44:53;14.38;;;13.80;;
46282;SDS011;32017;43.700;11.820;2023-02-28T00:47:13;14.02;;;13.38;;
46282;SDS011;32017;43.700;11.820;2023-02-28T00:49:34;15.77;;;15.05;;
46282;SDS011;32017;43.700;11.820;2023-02-28T00:51:54;16.08;;;15.40;;
46282;SDS011;32017;43.700;11.820;2023-02-28T00:54:15;13.38;;;12.98;;
46282;SDS011;32017;43.700;11.820;2023-02-28T00:56:36;13.82;;;13.20;;
46282;SDS011;32017;43.700;11.820;2023-02-28T00:58:55;12.38;;;11.80;;
46282;SDS011;32017;43.700;11.820;2023-02-28T01:01:15;12.82;;;12.20;;
46282;SDS011;32017;43.700;11.820;2023-02-28T01:03:36;12.98;;;12.35;;
46282;SDS011;32017;43.700;11.820;2023-02-28T01:05:55;12.95;;;12.55;;
46282;SDS011;32017;43.700;11.820;2023-02-28T01:08:15;9.98;;;9.70;;
46282;SDS011;32017;43.700;11.820;2023-02-28T01:10:35;12.27;;;11.80;;
46282;SDS011;32017;43.700;11.820;2023-02-28T01:12:55;11.05;;;10.75;;
46282;SDS011;32017;43.700;11.820;2023-02-28T01:15:16;11.15;;;10.95;;
46282;SDS011;32017;43.700;11.820;2023-02-28T01:17:35;11.73;;;11.40;;
46282;SDS011;32017;43.700;11.820;2023-02-28T01:19:55;12.75;;;12.18;;
46282;SDS011;32017;43.700;11.820;2023-02-28T01:22:15;13.48;;;12.75;;
46282;SDS011;32017;43.700;11.820;2023-02-28T01:24:35;12.13;;;11.75;;
46282;SDS011;32017;43.700;11.820;2023-02-28T01:26:56;13.20;;;12.55;;
46282;SDS011;32017;43.700;11.820;2023-02-28T01:29:16;11.63;;;11.43;;
46282;SDS011;32017;43.700;11.820;2023-02-28T01:31:36;12.25;;;11.95;;
46282;SDS011;32017;43.700;11.820;2023-02-28T01:33:56;12.63;;;12.23;;
46282;SDS011;32017;43.700;11.820;2023-02-28T01:36:20;11.77;;;11.38;;
46282;SDS011;32017;43.700;11.820;2023-02-28T01:38:42;12.60;;;11.95;;
46282;SDS011;32017;43.700;11.820;2023-02-28T01:41:02;10.77;;;10.48;;
46282;SDS011;32017;43.700;11.820;2023-02-28T01:43:27;11.15;;;10.95;;
46282;SDS011;32017;43.700;11.820;2023-02-28T01:46:10;13.10;;;12.70;;
46282;SDS011;32017;43.700;11.820;2023-02-28T01:48:32;12.10;;;11.20;;
46282;SDS011;32017;43.700;11.820;2023-02-28T01:53:21;10.57;;;10.38;;
46282;SDS011;32017;43.700;11.820;2023-02-28T01:55:47;11.02;;;10.68;;
46282;SDS011;32017;43.700;11.820;2023-02-28T01:58:10;10.63;;;10.45;;
46282;SDS011;32017;43.700;11.820;2023-02-28T02:00:30;11.38;;;11.02;;
46282;SDS011;32017;43.700;11.820;2023-02-28T02:02:55;10.88;;;10.45;;
46282;SDS011;32017;43.700;11.820;2023-02-28T02:05:20;12.60;;;12.20;;
46282;SDS011;32017;43.700;11.820;2023-02-28T02:07:43;10.73;;;10.43;;
46282;SDS011;32017;43.700;11.820;2023-02-28T02:10:10;12.30;;;11.85;;
46282;SDS011;32017;43.700;11.820;2023-02-28T02:17:52;10.80;;;10.48;;
46282;SDS011;32017;43.700;11.820;2023-02-28T02:36:47;11.30;;;11.10;;
46282;SDS011;32017;43.700;11.820;2023-02-28T02:42:13;11.38;;;10.98;;
46282;SDS011;32017;43.700;11.820;2023-02-28T02:44:40;9.90;;;9.60;;
46282;SDS011;32017;43.700;11.820;2023-02-28T02:47:06;10.57;;;10.38;;
46282;SDS011;32017;43.700;11.820;2023-02-28T02:49:33;10.32;;;10.13;;
46282;SDS011;32017;43.700;11.820;2023-02-28T02:51:56;10.05;;;9.57;;
46282;SDS011;32017;43.700;11.820;2023-02-28T02:54:20;11.23;;;10.82;;
46282;SDS011;32017;43.700;11.820;2023-02-28T02:56:47;11.00;;;10.80;;
46282;SDS011;32017;43.700;11.820;2023-02-28T02:59:10;10.52;;;10.32;;
46282;SDS011;32017;43.700;11.820;2023-02-28T03:01:32;10.38;;;10.15;;
46282;SDS011;32017;43.700;11.820;2023-02-28T03:03:58;11.43;;;11.13;;
46282;SDS011;32017;43.700;11.820;2023-02-28T03:06:28;9.82;;;9.63;;
46282;SDS011;32017;43.700;11.820;2023-02-28T03:08:48;10.88;;;10.68;;
46282;SDS011;32017;43.700;11.820;2023-02-28T03:11:12;10.40;;;10.10;;
46282;SDS011;32017;43.700;11.820;2023-02-28T03:27:29;9.75;;;9.65;;
46282;SDS011;32017;43.700;11.820;2023-02-28T03:30:03;10.10;;;10.00;;
46282;SDS011;32017;43.700;11.820;2023-02-28T03:32:34;9.43;;;9.23;;
46282;SDS011;32017;43.700;11.820;2023-02-28T03:35:00;9.38;;;9.18;;
46282;SDS011;32017;43.700;11.820;2023-02-28T03:37:26;9.55;;;9.25;;
46282;SDS011;32017;43.700;11.820;2023-02-28T03:39:59;9.75;;;9.55;;
46282;SDS011;32017;43.700;11.820;2023-02-28T03:42:29;9.93;;;9.82;;
46282;SDS011;32017;43.700;11.820;2023-02-28T03:44:57;10.38;;;10.23;;
46282;SDS011;32017;43.700;11.820;2023-02-28T03:50:29;9.98;;;9.77;;
46282;SDS011;32017;43.700;11.820;2023-02-28T03:53:47;9.65;;;9.45;;
46282;SDS011;32017;43.700;11.820;2023-02-28T04:01:07;12.77;;;12.20;;
46282;SDS011;32017;43.700;11.820;2023-02-28T04:03:30;12.68;;;12.18;;
46282;SDS011;32017;43.700;11.820;2023-02-28T04:05:52;12.52;;;12.23;;
46282;SDS011;32017;43.700;11.820;2023-02-28T04:08:13;10.70;;;10.50;;
46282;SDS011;32017;43.700;11.820;2023-02-28T04:10:33;9.07;;;8.88;;
46282;SDS011;32017;43.700;11.820;2023-02-28T04:12:53;9.02;;;8.93;;
46282;SDS011;32017;43.700;11.820;2023-02-28T04:15:13;8.63;;;8.52;;
46282;SDS011;32017;43.700;11.820;2023-02-28T04:17:33;8.73;;;8.55;;
46282;SDS011;32017;43.700;11.820;2023-02-28T04:19:53;10.48;;;10.27;;
46282;SDS011;32017;43.700;11.820;2023-02-28T04:22:15;9.07;;;8.98;;
46282;SDS011;32017;43.700;11.820;2023-02-28T04:24:37;10.10;;;10.00;;
46282;SDS011;32017;43.700;11.820;2023-02-28T04:29:21;10.02;;;9.77;;
46282;SDS011;32017;43.700;11.820;2023-02-28T04:31:44;9.10;;;8.88;;
46282;SDS011;32017;43.700;11.820;2023-02-28T04:34:05;8.18;;;8.07;;
46282;SDS011;32017;43.700;11.820;2023-02-28T04:36:25;8.55;;;8.45;;
46282;SDS011;32017;43.700;11.820;2023-02-28T04:38:45;8.85;;;8.65;;
46282;SDS011;32017;43.700;11.820;2023-02-28T04:41:05;8.93;;;8.82;;
46282;SDS011;32017;43.700;11.820;2023-02-28T04:43:26;9.57;;;9.38;;
46282;SDS011;32017;43.700;11.820;2023-02-28T04:45:49;10.48;;;10.25;;
46282;SDS011;32017;43.700;11.820;2023-02-28T04:48:09;9.02;;;8.65;;
46282;SDS011;32017;43.700;11.820;2023-02-28T04:50:29;9.90;;;9.80;;
46282;SDS011;32017;43.700;11.820;2023-02-28T04:52:49;10.50;;;10.40;;
46282;SDS011;32017;43.700;11.820;2023-02-28T04:55:09;9.10;;;9.00;;
46282;SDS011;32017;43.700;11.820;2023-02-28T04:57:29;9.65;;;9.50;;
46282;SDS011;32017;43.700;11.820;2023-02-28T04:59:49;10.10;;;10.00;;
46282;SDS011;32017;43.700;11.820;2023-02-28T05:02:09;9.98;;;9.77;;
46282;SDS011;32017;43.700;11.820;2023-02-28T05:04:29;10.05;;;9.90;;
46282;SDS011;32017;43.700;11.820;2023-02-28T05:06:50;10.48;;;10.27;;
46282;SDS011;32017;43.700;11.820;2023-02-28T05:09:09;10.20;;;10.10;;
46282;SDS011;32017;43.700;11.820;2023-02-28T05:11:33;9.55;;;9.40;;
46282;SDS011;32017;43.700;11.820;2023-02-28T05:13:54;9.90;;;9.60;;
46282;SDS011;32017;43.700;11.820;2023-02-28T05:16:15;9.93;;;9.63;;
46282;SDS011;32017;43.700;11.820;2023-02-28T05:18:36;9.80;;;9.70;;
46282;SDS011;32017;43.700;11.820;2023-02-28T05:20:56;10.90;;;10.73;;
46282;SDS011;32017;43.700;11.820;2023-02-28T05:23:16;10.65;;;10.52;;
46282;SDS011;32017;43.700;11.820;2023-02-28T05:25:39;10.18;;;9.98;;
46282;SDS011;32017;43.700;11.820;2023-02-28T05:27:59;8.80;;;8.70;;
46282;SDS011;32017;43.700;11.820;2023-02-28T05:30:19;9.57;;;9.45;;
46282;SDS011;32017;43.700;11.820;2023-02-28T05:32:39;8.68;;;8.48;;
46282;SDS011;32017;43.700;11.820;2023-02-28T05:35:03;10.98;;;10.70;;
46282;SDS011;32017;43.700;11.820;2023-02-28T05:37:24;10.50;;;10.20;;
46282;SDS011;32017;43.700;11.820;2023-02-28T05:39:43;9.85;;;9.55;;
46282;SDS011;32017;43.700;11.820;2023-02-28T05:42:03;11.73;;;11.43;;
46282;SDS011;32017;43.700;11.820;2023-02-28T05:44:24;9.85;;;9.75;;
46282;SDS011;32017;43.700;11.820;2023-02-28T05:46:44;9.77;;;9.68;;
46282;SDS011;32017;43.700;11.820;2023-02-28T05:49:03;11.70;;;11.40;;
46282;SDS011;32017;43.700;11.820;2023-02-28T05:51:24;12.50;;;12.00;;
46282;SDS011;32017;43.700;11.820;2023-02-28T05:53:43;12.90;;;12.40;;
46282;SDS011;32017;43.700;11.820;2023-02-28T05:56:03;13.57;;;12.88;;
46282;SDS011;32017;43.700;11.820;2023-02-28T05:58:24;13.48;;;12.75;;
46282;SDS011;32017;43.700;11.820;2023-02-28T06:00:49;12.95;;;12.15;;
46282;SDS011;32017;43.700;11.820;2023-02-28T06:03:09;9.35;;;9.23;;
46282;SDS011;32017;43.700;11.820;2023-02-28T06:05:29;9.15;;;9.05;;
46282;SDS011;32017;43.700;11.820;2023-02-28T06:07:49;9.05;;;8.85;;
46282;SDS011;32017;43.700;11.820;2023-02-28T06:10:10;8.55;;;8.45;;
46282;SDS011;32017;43.700;11.820;2023-02-28T06:12:30;8.57;;;8.48;;
46282;SDS011;32017;43.700;11.820;2023-02-28T06:14:50;8.40;;;8.30;;
46282;SDS011;32017;43.700;11.820;2023-02-28T06:17:10;9.15;;;9.05;;
46282;SDS011;32017;43.700;11.820;2023-02-28T06:19:30;12.18;;;11.77;;
46282;SDS011;32017;43.700;11.820;2023-02-28T06:21:51;9.77;;;9.57;;
46282;SDS011;32017;43.700;11.820;2023-02-28T06:24:12;8.80;;;8.63;;
46282;SDS011;32017;43.700;11.820;2023-02-28T06:26:33;8.95;;;8.85;;
46282;SDS011;32017;43.700;11.820;2023-02-28T06:28:53;9.15;;;8.98;;
46282;SDS011;32017;43.700;11.820;2023-02-28T06:31:15;8.43;;;8.32;;
46282;SDS011;32017;43.700;11.820;2023-02-28T06:35:56;7.53;;;7.43;;
46282;SDS011;32017;43.700;11.820;2023-02-28T06:38:16;8.65;;;8.55;;
46282;SDS011;32017;43.700;11.820;2023-02-28T06:40:37;8.07;;;7.97;;
46282;SDS011;32017;43.700;11.820;2023-02-28T06:42:57;9.57;;;9.48;;
46282;SDS011;32017;43.700;11.820;2023-02-28T06:45:17;8.63;;;8.52;;
46282;SDS011;32017;43.700;11.820;2023-02-28T06:47:38;8.10;;;8.00;;
46282;SDS011;32017;43.700;11.820;2023-02-28T06:49:59;8.10;;;8.00;;
46282;SDS011;32017;43.700;11.820;2023-02-28T06:52:21;6.53;;;6.32;;
46282;SDS011;32017;43.700;11.820;2023-02-28T06:54:42;7.72;;;7.53;;
46282;SDS011;32017;43.700;11.820;2023-02-28T06:57:05;9.35;;;9.15;;
46282;SDS011;32017;43.700;11.820;2023-02-28T06:59:25;8.73;;;8.52;;
46282;SDS011;32017;43.700;11.820;2023-02-28T07:01:46;8.63;;;8.52;;
46282;SDS011;32017;43.700;11.820;2023-02-28T07:04:06;10.15;;;9.95;;
46282;SDS011;32017;43.700;11.820;2023-02-28T07:06:27;9.52;;;9.43;;
46282;SDS011;32017;43.700;11.820;2023-02-28T07:08:47;8.43;;;8.32;;
46282;SDS011;32017;43.700;11.820;2023-02-28T07:11:08;8.23;;;8.13;;
46282;SDS011;32017;43.700;11.820;2023-02-28T07:13:28;7.35;;;7.25;;
46282;SDS011;32017;43.700;11.820;2023-02-28T07:15:55;7.60;;;7.22;;
46282;SDS011;32017;43.700;11.820;2023-02-28T07:18:20;8.18;;;7.97;;
46282;SDS011;32017;43.700;11.820;2023-02-28T07:20:40;11.50;;;11.20;;
46282;SDS011;32017;43.700;11.820;2023-02-28T07:23:00;11.55;;;11.00;;
46282;SDS011;32017;43.700;11.820;2023-02-28T07:25:21;12.13;;;11.32;;
46282;SDS011;32017;43.700;11.820;2023-02-28T07:27:44;7.82;;;7.72;;
46282;SDS011;32017;43.700;11.820;2023-02-28T07:30:04;7.68;;;7.57;;
46282;SDS011;32017;43.700;11.820;2023-02-28T07:32:27;8.25;;;8.15;;
46282;SDS011;32017;43.700;11.820;2023-02-28T07:34:47;7.03;;;6.95;;
46282;SDS011;32017;43.700;11.820;2023-02-28T07:37:07;7.80;;;7.70;;
46282;SDS011;32017;43.700;11.820;2023-02-28T07:39:27;7.63;;;7.53;;
46282;SDS011;32017;43.700;11.820;2023-02-28T07:41:47;7.60;;;7.50;;
46282;SDS011;32017;43.700;11.820;2023-02-28T07:44:07;7.18;;;7.07;;
46282;SDS011;32017;43.700;11.820;2023-02-28T07:46:28;7.35;;;7.25;;
46282;SDS011;32017;43.700;11.820;2023-02-28T07:48:54;6.13;;;6.13;;
46282;SDS011;32017;43.700;11.820;2023-02-28T07:51:19;4.70;;;4.70;;
46282;SDS011;32017;43.700;11.820;2023-02-28T07:53:39;7.53;;;7.32;;
46282;SDS011;32017;43.700;11.820;2023-02-28T07:56:00;7.70;;;7.50;;
46282;SDS011;32017;43.700;11.820;2023-02-28T07:58:21;8.32;;;8.13;;
46282;SDS011;32017;43.700;11.820;2023-02-28T08:00:41;8.77;;;8.57;;
46282;SDS011;32017;43.700;11.820;2023-02-28T08:03:01;4.90;;;4.80;;
46282;SDS011;32017;43.700;11.820;2023-02-28T08:05:21;5.43;;;5.43;;
46282;SDS011;32017;43.700;11.820;2023-02-28T08:07:41;5.65;;;5.60;;
46282;SDS011;32017;43.700;11.820;2023-02-28T08:10:02;5.50;;;5.50;;
46282;SDS011;32017;43.700;11.820;2023-02-28T08:12:24;5.20;;;5.10;;
46282;SDS011;32017;43.700;11.820;2023-02-28T08:14:45;4.88;;;4.88;;
46282;SDS011;32017;43.700;11.820;2023-02-28T08:17:05;5.20;;;5.20;;
46282;SDS011;32017;43.700;11.820;2023-02-28T08:19:25;4.85;;;4.75;;
46282;SDS011;32017;43.700;11.820;2023-02-28T08:21:45;5.90;;;5.80;;
46282;SDS011;32017;43.700;11.820;2023-02-28T08:24:05;4.70;;;4.53;;
46282;SDS011;32017;43.700;11.820;2023-02-28T08:26:25;4.15;;;4.15;;
46282;SDS011;32017;43.700;11.820;2023-02-28T08:28:46;5.20;;;5.20;;
46282;SDS011;32017;43.700;11.820;2023-02-28T08:31:09;5.18;;;4.97;;
46282;SDS011;32017;43.700;11.820;2023-02-28T08:33:30;4.57;;;4.57;;
46282;SDS011;32017;43.700;11.820;2023-02-28T08:35:54;4.85;;;4.82;;
46282;SDS011;32017;43.700;11.820;2023-02-28T08:38:14;4.10;;;4.10;;
46282;SDS011;32017;43.700;11.820;2023-02-28T08:40:34;4.82;;;4.82;;
46282;SDS011;32017;43.700;11.820;2023-02-28T08:42:54;4.93;;;4.72;;
46282;SDS011;32017;43.700;11.820;2023-02-28T08:45:14;4.00;;;4.00;;
46282;SDS011;32017;43.700;11.820;2023-02-28T08:47:34;4.20;;;4.10;;
46282;SDS011;32017;43.700;11.820;2023-02-28T08:49:53;4.88;;;4.88;;
46282;SDS011;32017;43.700;11.820;2023-02-28T08:52:13;5.57;;;5.57;;
46282;SDS011;32017;43.700;11.820;2023-02-28T08:54:33;5.05;;;4.95;;
46282;SDS011;32017;43.700;11.820;2023-02-28T08:56:53;4.72;;;4.65;;
46282;SDS011;32017;43.700;11.820;2023-02-28T08:59:13;5.68;;;5.68;;
46282;SDS011;32017;43.700;11.820;2023-02-28T09:01:33;4.55;;;4.55;;
46282;SDS011;32017;43.700;11.820;2023-02-28T09:03:54;4.95;;;4.80;;
46282;SDS011;32017;43.700;11.820;2023-02-28T09:06:21;5.20;;;5.20;;
46282;SDS011;32017;43.700;11.820;2023-02-28T09:08:42;5.72;;;5.72;;
46282;SDS011;32017;43.700;11.820;2023-02-28T09:11:02;5.60;;;5.50;;
46282;SDS011;32017;43.700;11.820;2023-02-28T09:13:24;5.10;;;5.10;;
46282;SDS011;32017;43.700;11.820;2023-02-28T09:15:44;6.03;;;5.88;;
46282;SDS011;32017;43.700;11.820;2023-02-28T09:18:04;5.85;;;5.75;;
46282;SDS011;32017;43.700;11.820;2023-02-28T09:20:25;5.60;;;5.50;;
46282;SDS011;32017;43.700;11.820;2023-02-28T09:22:45;6.25;;;6.00;;
46282;SDS011;32017;43.700;11.820;2023-02-28T09:25:04;5.28;;;5.28;;
46282;SDS011;32017;43.700;11.820;2023-02-28T09:27:26;6.05;;;5.95;;
46282;SDS011;32017;43.700;11.820;2023-02-28T09:29:46;6.13;;;6.03;;
46282;SDS011;32017;43.700;11.820;2023-02-28T09:32:06;5.22;;;5.22;;
46282;SDS011;32017;43.700;11.820;2023-02-28T09:34:26;6.10;;;6.00;;
46282;SDS011;32017;43.700;11.820;2023-02-28T09:36:50;5.55;;;5.45;;
46282;SDS011;32017;43.700;11.820;2023-02-28T09:39:14;5.90;;;5.70;;
46282;SDS011;32017;43.700;11.820;2023-02-28T09:41:40;4.82;;;4.72;;
46282;SDS011;32017;43.700;11.820;2023-02-28T09:44:06;6.32;;;6.22;;
46282;SDS011;32017;43.700;11.820;2023-02-28T09:46:36;5.45;;;5.45;;
46282;SDS011;32017;43.700;11.820;2023-02-28T09:49:05;5.80;;;5.80;;
46282;SDS011;32017;43.700;11.820;2023-02-28T09:51:39;5.60;;;5.55;;
46282;SDS011;32017;43.700;11.820;2023-02-28T09:54:20;6.68;;;6.57;;
46282;SDS011;32017;43.700;11.820;2023-02-28T09:56:43;6.00;;;5.60;;
46282;SDS011;32017;43.700;11.820;2023-02-28T09:59:07;4.80;;;4.80;;
46282;SDS011;32017;43.700;11.820;2023-02-28T10:04:39;5.45;;;5.35;;
46282;SDS011;32017;43.700;11.820;2023-02-28T10:07:01;5.35;;;5.25;;
46282;SDS011;32017;43.700;11.820;2023-02-28T10:09:37;5.22;;;4.78;;
46282;SDS011;32017;43.700;11.820;2023-02-28T10:12:05;5.28;;;5.18;;
46282;SDS011;32017;43.700;11.820;2023-02-28T10:14:26;6.55;;;6.43;;
46282;SDS011;32017;43.700;11.820;2023-02-28T10:16:58;6.00;;;5.90;;
46282;SDS011;32017;43.700;11.820;2023-02-28T10:20:15;6.68;;;6.57;;
46282;SDS011;32017;43.700;11.820;2023-02-28T10:22:52;5.93;;;5.82;;
46282;SDS011;32017;43.700;11.820;2023-02-28T10:25:20;5.95;;;5.85;;
46282;SDS011;32017;43.700;11.820;2023-02-28T10:27:46;5.63;;;5.57;;
46282;SDS011;32017;43.700;11.820;2023-02-28T10:30:09;5.30;;;5.20;;
46282;SDS011;32017;43.700;11.820;2023-02-28T10:32:31;7.45;;;7.35;;
46282;SDS011;32017;43.700;11.820;2023-02-28T10:34:57;5.78;;;5.68;;
46282;SDS011;32017;43.700;11.820;2023-02-28T10:37:40;6.30;;;6.20;;
46282;SDS011;32017;43.700;11.820;2023-02-28T10:40:01;5.80;;;5.70;;
46282;SDS011;32017;43.700;11.820;2023-02-28T10:47:04;6.97;;;6.88;;
46282;SDS011;32017;43.700;11.820;2023-02-28T10:49:25;5.80;;;5.72;;
46282;SDS011;32017;43.700;11.820;2023-02-28T10:51:52;6.38;;;6.28;;
46282;SDS011;32017;43.700;11.820;2023-02-28T10:54:18;7.10;;;7.00;;
46282;SDS011;32017;43.700;11.820;2023-02-28T10:57:05;6.32;;;6.22;;
46282;SDS011;32017;43.700;11.820;2023-02-28T10:59:28;7.00;;;6.90;;
46282;SDS011;32017;43.700;11.820;2023-02-28T11:01:49;6.57;;;6.30;;
46282;SDS011;32017;43.700;11.820;2023-02-28T11:09:45;5.82;;;5.72;;
46282;SDS011;32017;43.700;11.820;2023-02-28T11:12:23;6.10;;;6.00;;
46282;SDS011;32017;43.700;11.820;2023-02-28T11:14:48;6.95;;;6.85;;
46282;SDS011;32017;43.700;11.820;2023-02-28T11:17:20;6.93;;;6.70;;
46282;SDS011;32017;43.700;11.820;2023-02-28T11:19:53;6.68;;;6.57;;
46282;SDS011;32017;43.700;11.820;2023-02-28T11:25:15;5.97;;;5.88;;
46282;SDS011;32017;43.700;11.820;2023-02-28T11:27:50;6.10;;;6.00;;
46282;SDS011;32017;43.700;11.820;2023-02-28T11:32:58;7.13;;;7.03;;
46282;SDS011;32017;43.700;11.820;2023-02-28T11:35:21;6.40;;;6.30;;
46282;SDS011;32017;43.700;11.820;2023-02-28T11:37:50;6.82;;;6.72;;
46282;SDS011;32017;43.700;11.820;2023-02-28T11:40:18;6.38;;;6.28;;
46282;SDS011;32017;43.700;11.820;2023-02-28T11:50:38;7.10;;;6.80;;
46282;SDS011;32017;43.700;11.820;2023-02-28T11:53:01;6.43;;;6.32;;
46282;SDS011;32017;43.700;11.820;2023-02-28T11:55:48;5.83;;;5.67;;
46282;SDS011;32017;43.700;11.820;2023-02-28T12:11:01;6.38;;;6.10;;
46282;SDS011;32017;43.700;11.820;2023-02-28T12:20:26;6.57;;;6.47;;
46282;SDS011;32017;43.700;11.820;2023-02-28T12:26:41;5.90;;;5.80;;
46282;SDS011;32017;43.700;11.820;2023-02-28T12:29:22;5.80;;;5.70;;
46282;SDS011;32017;43.700;11.820;2023-02-28T12:31:53;5.93;;;5.82;;
46282;SDS011;32017;43.700;11.820;2023-02-28T12:34:36;6.30;;;6.10;;
46282;SDS011;32017;43.700;11.820;2023-02-28T12:37:01;7.93;;;7.43;;
46282;SDS011;32017;43.700;11.820;2023-02-28T12:45:16;6.27;;;6.07;;
46282;SDS011;32017;43.700;11.820;2023-02-28T12:48:03;8.30;;;7.63;;
46282;SDS011;32017;43.700;11.820;2023-02-28T12:50:27;8.38;;;8.07;;
46282;SDS011;32017;43.700;11.820;2023-02-28T13:00:53;8.35;;;8.07;;
46282;SDS011;32017;43.700;11.820;2023-02-28T13:11:24;8.25;;;8.15;;
46282;SDS011;32017;43.700;11.820;2023-02-28T13:13:57;7.18;;;7.07;;
46282;SDS011;32017;43.700;11.820;2023-02-28T13:18:42;8.15;;;7.95;;
46282;SDS011;32017;43.700;11.820;2023-02-28T13:21:06;7.90;;;7.70;;
46282;SDS011;32017;43.700;11.820;2023-02-28T13:23:41;8.50;;;8.40;;
46282;SDS011;32017;43.700;11.820;2023-02-28T13:26:22;7.65;;;7.40;;
46282;SDS011;32017;43.700;11.820;2023-02-28T13:34:28;10.60;;;10.30;;
46282;SDS011;32017;43.700;11.820;2023-02-28T13:36:49;9.25;;;9.02;;
46282;SDS011;32017;43.700;11.820;2023-02-28T13:41:56;9.25;;;9.10;;
46282;SDS011;32017;43.700;11.820;2023-02-28T13:44:17;9.43;;;9.02;;
46282;SDS011;32017;43.700;11.820;2023-02-28T13:49:30;10.68;;;10.38;;
46282;SDS011;32017;43.700;11.820;2023-02-28T13:51:55;9.30;;;9.05;;
46282;SDS011;32017;43.700;11.820;2023-02-28T13:54:56;11.30;;;10.88;;
46282;SDS011;32017;43.700;11.820;2023-02-28T13:58:00;9.02;;;8.93;;
46282;SDS011;32017;43.700;11.820;2023-02-28T14:05:18;8.98;;;8.68;;
46282;SDS011;32017;43.700;11.820;2023-02-28T14:07:46;8.50;;;8.20;;
46282;SDS011;32017;43.700;11.820;2023-02-28T14:10:15;8.48;;;8.27;;
46282;SDS011;32017;43.700;11.820;2023-02-28T14:18:16;9.23;;;9.13;;
46282;SDS011;32017;43.700;11.820;2023-02-28T14:20:37;8.13;;;7.93;;
46282;SDS011;32017;43.700;11.820;2023-02-28T14:25:40;7.38;;;7.28;;
46282;SDS011;32017;43.700;11.820;2023-02-28T14:31:10;9.35;;;9.00;;
46282;SDS011;32017;43.700;11.820;2023-02-28T14:36:40;9.68;;;9.48;;
46282;SDS011;32017;43.700;11.820;2023-02-28T14:38:45;7.65;;;7.55;;
46282;SDS011;32017;43.700;11.820;2023-02-28T14:41:18;8.75;;;8.45;;
46282;SDS011;32017;43.700;11.820;2023-02-28T14:43:47;9.52;;;9.18;;
46282;SDS011;32017;43.700;11.820;2023-02-28T14:46:12;7.85;;;7.75;;
46282;SDS011;32017;43.700;11.820;2023-02-28T14:48:33;7.75;;;7.55;;
46282;SDS011;32017;43.700;11.820;2023-02-28T14:50:59;7.35;;;7.25;;
46282;SDS011;32017;43.700;11.820;2023-02-28T14:53:21;7.80;;;7.70;;
46282;SDS011;32017;43.700;11.820;2023-02-28T14:55:44;8.15;;;8.05;;
46282;SDS011;32017;43.700;11.820;2023-02-28T14:58:06;7.00;;;6.90;;
46282;SDS011;32017;43.700;11.820;2023-02-28T15:00:48;7.07;;;6.97;;
46282;SDS011;32017;43.700;11.820;2023-02-28T15:03:51;8.65;;;8.45;;
46282;SDS011;32017;43.700;11.820;2023-02-28T15:05:58;8.20;;;8.10;;
46282;SDS011;32017;43.700;11.820;2023-02-28T15:08:19;9.00;;;8.80;;
46282;SDS011;32017;43.700;11.820;2023-02-28T15:10:58;8.90;;;8.70;;
46282;SDS011;32017;43.700;11.820;2023-02-28T15:13:21;7.60;;;7.50;;
46282;SDS011;32017;43.700;11.820;2023-02-28T15:15:44;8.57;;;8.38;;
46282;SDS011;32017;43.700;11.820;2023-02-28T15:21:02;7.43;;;7.32;;
46282;SDS011;32017;43.700;11.820;2023-02-28T15:23:45;7.72;;;7.63;;
46282;SDS011;32017;43.700;11.820;2023-02-28T15:26:16;7.93;;;7.80;;
46282;SDS011;32017;43.700;11.820;2023-02-28T15:28:39;8.40;;;8.05;;
46282;SDS011;32017;43.700;11.820;2023-02-28T15:31:02;8.65;;;8.52;;
46282;SDS011;32017;43.700;11.820;2023-02-28T15:33:36;7.68;;;7.57;;
46282;SDS011;32017;43.700;11.820;2023-02-28T15:36:09;7.78;;;7.68;;
46282;SDS011;32017;43.700;11.820;2023-02-28T15:38:35;7.35;;;7.22;;
46282;SDS011;32017;43.700;11.820;2023-02-28T15:40:57;8.75;;;8.65;;
46282;SDS011;32017;43.700;11.820;2023-02-28T15:43:19;9.63;;;9.40;;
46282;SDS011;32017;43.700;11.820;2023-02-28T15:50:47;7.50;;;7.40;;
46282;SDS011;32017;43.700;11.820;2023-02-28T15:53:14;8.45;;;8.25;;
46282;SDS011;32017;43.700;11.820;2023-02-28T15:55:37;8.98;;;8.68;;
46282;SDS011;32017;43.700;11.820;2023-02-28T15:58:00;9.98;;;9.65;;
46282;SDS011;32017;43.700;11.820;2023-02-28T16:00:22;8.98;;;8.77;;
46282;SDS011;32017;43.700;11.820;2023-02-28T16:02:43;9.90;;;9.70;;
46282;SDS011;32017;43.700;11.820;2023-02-28T16:07:34;10.20;;;9.98;;
46282;SDS011;32017;43.700;11.820;2023-02-28T16:09:54;11.65;;;11.25;;
46282;SDS011;32017;43.700;11.820;2023-02-28T16:12:17;11.23;;;11.02;;
46282;SDS011;32017;43.700;11.820;2023-02-28T16:14:39;10.32;;;10.05;;
46282;SDS011;32017;43.700;11.820;2023-02-28T16:17:04;10.05;;;9.88;;
46282;SDS011;32017;43.700;11.820;2023-02-28T16:19:25;9.50;;;9.35;;
46282;SDS011;32017;43.700;11.820;2023-02-28T16:21:45;9.75;;;9.65;;
46282;SDS011;32017;43.700;11.820;2023-02-28T16:24:06;9.90;;;9.80;;
46282;SDS011;32017;43.700;11.820;2023-02-28T16:26:26;9.68;;;9.55;;
46282;SDS011;32017;43.700;11.820;2023-02-28T16:28:47;10.07;;;9.88;;
46282;SDS011;32017;43.700;11.820;2023-02-28T16:31:09;8.90;;;8.80;;
46282;SDS011;32017;43.700;11.820;2023-02-28T16:33:35;8.80;;;8.70;;
46282;SDS011;32017;43.700;11.820;2023-02-28T16:35:57;8.88;;;8.77;;
46282;SDS011;32017;43.700;11.820;2023-02-28T16:38:17;9.37;;;9.17;;
46282;SDS011;32017;43.700;11.820;2023-02-28T16:40:40;8.88;;;8.77;;
46282;SDS011;32017;43.700;11.820;2023-02-28T16:43:00;9.85;;;9.65;;
46282;SDS011;32017;43.700;11.820;2023-02-28T16:45:26;8.90;;;8.80;;
46282;SDS011;32017;43.700;11.820;2023-02-28T16:47:47;9.07;;;8.93;;
46282;SDS011;32017;43.700;11.820;2023-02-28T16:50:40;10.63;;;10.32;;
46282;SDS011;32017;43.700;11.820;2023-02-28T16:52:54;10.50;;;10.10;;
46282;SDS011;32017;43.700;11.820;2023-02-28T16:55:15;18.27;;;16.83;;